Schuylkill Haven, Pennsylvania
Current Conditions -  °F | °C
As of 11:54 PM on Wednesday 22 Oct 2014 (Local Time) from KRDG Reporting Station
Overcast Overcast  
Wind Chill: 53°   Ceiling: 2900
Heat Index: 53°   Visibility: 10mi
Dew Point: 44°   Wind: 17mph
Humidity: 71%   Direction: 340°NNW
Pressure: 29.86"   Gusts: 28mph
Location:  40.63°N, 76.17°W
Report Text: KRDG 230354Z 34015G24KT 10SM BKN029 OVC038 12/07 A2986 RMK AO2 RAB07E18 SLP116 P0000 T01170067
Loading
Personal Weather Stations






























Interactive Weather Map
Tropical Storm Tracking
New forecast layout! Learn more

10-Day Weather Forecast

Advertisements
Track Severe Weather on mobile